sensor_id;sensor_type;location;lat;lon;timestamp;temperature;humidity
46816;DHT22;32787;53.316;8.670;2023-02-10T00:02:22;4.30;88.40
46816;DHT22;32787;53.316;8.670;2023-02-10T00:04:47;4.20;88.30
46816;DHT22;32787;53.316;8.670;2023-02-10T00:07:13;4.10;88.40
46816;DHT22;32787;53.316;8.670;2023-02-10T00:09:38;4.10;88.50
46816;DHT22;32787;53.316;8.670;2023-02-10T00:12:04;4.10;88.70
46816;DHT22;32787;53.316;8.670;2023-02-10T00:14:32;4.10;88.70
46816;DHT22;32787;53.316;8.670;2023-02-10T00:16:58;4.10;88.70
46816;DHT22;32787;53.316;8.670;2023-02-10T00:19:26;4.20;88.70
46816;DHT22;32787;53.316;8.670;2023-02-10T00:21:51;4.10;88.60
46816;DHT22;32787;53.316;8.670;2023-02-10T00:24:18;4.20;88.50
46816;DHT22;32787;53.316;8.670;2023-02-10T00:26:44;4.10;88.40
46816;DHT22;32787;53.316;8.670;2023-02-10T00:29:09;4.10;88.40
46816;DHT22;32787;53.316;8.670;2023-02-10T00:31:35;4.10;88.50
46816;DHT22;32787;53.316;8.670;2023-02-10T00:34:00;4.20;88.50
46816;DHT22;32787;53.316;8.670;2023-02-10T00:36:26;4.10;88.50
46816;DHT22;32787;53.316;8.670;2023-02-10T00:38:52;4.10;88.50
46816;DHT22;32787;53.316;8.670;2023-02-10T00:41:20;4.00;88.50
46816;DHT22;32787;53.316;8.670;2023-02-10T00:43:46;4.10;88.50
46816;DHT22;32787;53.316;8.670;2023-02-10T00:46:13;4.00;88.40
46816;DHT22;32787;53.316;8.670;2023-02-10T00:48:38;4.10;88.50
46816;DHT22;32787;53.316;8.670;2023-02-10T00:51:04;4.00;88.60
46816;DHT22;32787;53.316;8.670;2023-02-10T00:53:30;3.90;88.50
46816;DHT22;32787;53.316;8.670;2023-02-10T00:55:56;3.90;88.90
46816;DHT22;32787;53.316;8.670;2023-02-10T00:58:22;3.90;88.70
46816;DHT22;32787;53.316;8.670;2023-02-10T01:00:48;3.80;88.80
46816;DHT22;32787;53.316;8.670;2023-02-10T01:03:14;3.80;89.00
46816;DHT22;32787;53.316;8.670;2023-02-10T01:05:40;3.60;88.80
46816;DHT22;32787;53.316;8.670;2023-02-10T01:08:06;3.60;89.20
46816;DHT22;32787;53.316;8.670;2023-02-10T01:10:35;3.60;89.20
46816;DHT22;32787;53.316;8.670;2023-02-10T01:13:05;3.50;89.30
46816;DHT22;32787;53.316;8.670;2023-02-10T01:15:30;3.40;89.40
46816;DHT22;32787;53.316;8.670;2023-02-10T01:17:56;3.40;89.60
46816;DHT22;32787;53.316;8.670;2023-02-10T01:20:22;3.20;89.50
46816;DHT22;32787;53.316;8.670;2023-02-10T01:22:48;3.30;89.80
46816;DHT22;32787;53.316;8.670;2023-02-10T01:25:14;3.30;89.90
46816;DHT22;32787;53.316;8.670;2023-02-10T01:27:39;3.30;89.80
46816;DHT22;32787;53.316;8.670;2023-02-10T01:30:05;3.20;89.70
46816;DHT22;32787;53.316;8.670;2023-02-10T01:32:31;3.20;90.00
46816;DHT22;32787;53.316;8.670;2023-02-10T01:34:56;3.30;90.00
46816;DHT22;32787;53.316;8.670;2023-02-10T01:37:22;3.30;90.00
46816;DHT22;32787;53.316;8.670;2023-02-10T01:39:48;3.40;90.10
46816;DHT22;32787;53.316;8.670;2023-02-10T01:42:14;3.40;89.90
46816;DHT22;32787;53.316;8.670;2023-02-10T01:47:06;3.40;89.80
46816;DHT22;32787;53.316;8.670;2023-02-10T01:49:36;3.30;89.70
46816;DHT22;32787;53.316;8.670;2023-02-10T01:52:12;3.30;89.90
46816;DHT22;32787;53.316;8.670;2023-02-10T01:54:45;3.30;89.70
46816;DHT22;32787;53.316;8.670;2023-02-10T01:57:12;3.30;89.80
46816;DHT22;32787;53.316;8.670;2023-02-10T01:59:39;3.40;89.80
46816;DHT22;32787;53.316;8.670;2023-02-10T02:02:06;3.40;89.70
46816;DHT22;32787;53.316;8.670;2023-02-10T02:04:41;3.30;89.70
46816;DHT22;32787;53.316;8.670;2023-02-10T02:07:07;3.40;89.70
46816;DHT22;32787;53.316;8.670;2023-02-10T02:09:33;3.40;89.60
46816;DHT22;32787;53.316;8.670;2023-02-10T02:14:58;3.30;89.60
46816;DHT22;32787;53.316;8.670;2023-02-10T02:34:21;3.20;89.70
46816;DHT22;32787;53.316;8.670;2023-02-10T02:36:54;3.10;89.70
46816;DHT22;32787;53.316;8.670;2023-02-10T02:39:22;2.90;89.60
46816;DHT22;32787;53.316;8.670;2023-02-10T02:44:39;2.70;90.00
46816;DHT22;32787;53.316;8.670;2023-02-10T02:50:37;2.60;90.20
46816;DHT22;32787;53.316;8.670;2023-02-10T02:53:35;2.50;90.00
46816;DHT22;32787;53.316;8.670;2023-02-10T02:59:20;2.40;90.40
46816;DHT22;32787;53.316;8.670;2023-02-10T03:01:52;2.10;90.40
46816;DHT22;32787;53.316;8.670;2023-02-10T03:04:20;2.20;90.70
46816;DHT22;32787;53.316;8.670;2023-02-10T03:06:46;2.20;90.80
46816;DHT22;32787;53.316;8.670;2023-02-10T03:09:12;2.10;90.70
46816;DHT22;32787;53.316;8.670;2023-02-10T03:11:39;2.20;90.80
46816;DHT22;32787;53.316;8.670;2023-02-10T03:14:04;2.10;90.70
46816;DHT22;32787;53.316;8.670;2023-02-10T03:16:30;2.10;91.00
46816;DHT22;32787;53.316;8.670;2023-02-10T03:18:56;2.10;91.00
46816;DHT22;32787;53.316;8.670;2023-02-10T03:21:21;2.10;91.00
46816;DHT22;32787;53.316;8.670;2023-02-10T03:23:47;1.90;91.00
46816;DHT22;32787;53.316;8.670;2023-02-10T03:26:13;1.90;91.00
46816;DHT22;32787;53.316;8.670;2023-02-10T03:28:38;1.90;91.30
46816;DHT22;32787;53.316;8.670;2023-02-10T03:31:05;2.00;91.30
46816;DHT22;32787;53.316;8.670;2023-02-10T03:33:32;1.90;91.20
46816;DHT22;32787;53.316;8.670;2023-02-10T03:35:57;2.00;91.50
46816;DHT22;32787;53.316;8.670;2023-02-10T03:38:24;2.10;91.50
46816;DHT22;32787;53.316;8.670;2023-02-10T03:40:51;2.00;91.40
46816;DHT22;32787;53.316;8.670;2023-02-10T03:43:17;1.90;91.40
46816;DHT22;32787;53.316;8.670;2023-02-10T03:45:43;1.90;91.30
46816;DHT22;32787;53.316;8.670;2023-02-10T03:48:09;2.00;91.40
46816;DHT22;32787;53.316;8.670;2023-02-10T03:50:34;2.10;91.40
46816;DHT22;32787;53.316;8.670;2023-02-10T03:53:00;2.10;91.30
46816;DHT22;32787;53.316;8.670;2023-02-10T03:55:27;2.10;91.30
46816;DHT22;32787;53.316;8.670;2023-02-10T03:57:52;1.90;91.10
46816;DHT22;32787;53.316;8.670;2023-02-10T04:00:18;2.00;91.40
46816;DHT22;32787;53.316;8.670;2023-02-10T04:02:44;2.10;91.40
46816;DHT22;32787;53.316;8.670;2023-02-10T04:05:10;2.10;91.40
46816;DHT22;32787;53.316;8.670;2023-02-10T04:07:36;2.00;91.40
46816;DHT22;32787;53.316;8.670;2023-02-10T04:10:03;2.00;91.30
46816;DHT22;32787;53.316;8.670;2023-02-10T04:12:29;2.00;91.30
46816;DHT22;32787;53.316;8.670;2023-02-10T04:14:54;1.90;91.20
46816;DHT22;32787;53.316;8.670;2023-02-10T04:17:20;1.90;91.50
46816;DHT22;32787;53.316;8.670;2023-02-10T04:19:45;1.90;91.50
46816;DHT22;32787;53.316;8.670;2023-02-10T04:22:11;1.80;91.30
46816;DHT22;32787;53.316;8.670;2023-02-10T04:24:37;1.80;91.50
46816;DHT22;32787;53.316;8.670;2023-02-10T04:27:02;1.60;91.40
46816;DHT22;32787;53.316;8.670;2023-02-10T04:29:28;1.60;91.60
46816;DHT22;32787;53.316;8.670;2023-02-10T04:31:54;1.80;91.70
46816;DHT22;32787;53.316;8.670;2023-02-10T04:34:19;1.80;91.60
46816;DHT22;32787;53.316;8.670;2023-02-10T04:36:45;1.80;91.60
46816;DHT22;32787;53.316;8.670;2023-02-10T04:39:11;1.80;91.60
46816;DHT22;32787;53.316;8.670;2023-02-10T04:41:36;1.60;91.50
46816;DHT22;32787;53.316;8.670;2023-02-10T04:44:02;1.60;91.60
46816;DHT22;32787;53.316;8.670;2023-02-10T04:46:28;1.50;91.50
46816;DHT22;32787;53.316;8.670;2023-02-10T04:48:54;1.50;91.70
46816;DHT22;32787;53.316;8.670;2023-02-10T04:51:20;1.50;91.80
46816;DHT22;32787;53.316;8.670;2023-02-10T04:53:45;1.50;91.80
46816;DHT22;32787;53.316;8.670;2023-02-10T04:56:13;1.60;91.80
46816;DHT22;32787;53.316;8.670;2023-02-10T04:58:38;1.60;91.90
46816;DHT22;32787;53.316;8.670;2023-02-10T05:01:05;1.60;91.80
46816;DHT22;32787;53.316;8.670;2023-02-10T05:03:30;1.60;91.90
46816;DHT22;32787;53.316;8.670;2023-02-10T05:05:56;1.60;91.80
46816;DHT22;32787;53.316;8.670;2023-02-10T05:08:21;1.60;91.80
46816;DHT22;32787;53.316;8.670;2023-02-10T05:10:53;1.40;91.80
46816;DHT22;32787;53.316;8.670;2023-02-10T05:13:19;1.40;92.00
46816;DHT22;32787;53.316;8.670;2023-02-10T05:15:45;1.50;92.10
46816;DHT22;32787;53.316;8.670;2023-02-10T05:18:11;1.50;92.00
46816;DHT22;32787;53.316;8.670;2023-02-10T05:20:37;1.50;91.90
46816;DHT22;32787;53.316;8.670;2023-02-10T05:23:02;1.40;92.00
46816;DHT22;32787;53.316;8.670;2023-02-10T05:25:28;1.50;92.10
46816;DHT22;32787;53.316;8.670;2023-02-10T05:27:54;1.50;92.00
46816;DHT22;32787;53.316;8.670;2023-02-10T05:30:19;1.50;91.90
46816;DHT22;32787;53.316;8.670;2023-02-10T05:32:45;1.50;92.00
46816;DHT22;32787;53.316;8.670;2023-02-10T05:35:11;1.60;92.10
46816;DHT22;32787;53.316;8.670;2023-02-10T05:37:37;1.50;92.10
46816;DHT22;32787;53.316;8.670;2023-02-10T05:40:03;1.50;92.00
46816;DHT22;32787;53.316;8.670;2023-02-10T05:42:29;1.40;91.90
46816;DHT22;32787;53.316;8.670;2023-02-10T05:44:54;1.40;92.00
46816;DHT22;32787;53.316;8.670;2023-02-10T05:47:20;1.50;92.00
46816;DHT22;32787;53.316;8.670;2023-02-10T05:49:45;1.50;92.10
46816;DHT22;32787;53.316;8.670;2023-02-10T05:52:11;1.40;92.10
46816;DHT22;32787;53.316;8.670;2023-02-10T05:54:36;1.50;92.20
46816;DHT22;32787;53.316;8.670;2023-02-10T05:57:02;1.40;92.00
46816;DHT22;32787;53.316;8.670;2023-02-10T05:59:28;1.50;92.30
46816;DHT22;32787;53.316;8.670;2023-02-10T06:01:54;1.50;92.10
46816;DHT22;32787;53.316;8.670;2023-02-10T06:04:20;1.60;92.30
46816;DHT22;32787;53.316;8.670;2023-02-10T06:06:46;1.60;92.30
46816;DHT22;32787;53.316;8.670;2023-02-10T06:09:12;1.70;92.30
46816;DHT22;32787;53.316;8.670;2023-02-10T06:11:38;1.70;92.30
46816;DHT22;32787;53.316;8.670;2023-02-10T06:14:03;1.70;92.20
46816;DHT22;32787;53.316;8.670;2023-02-10T06:16:29;1.80;92.20
46816;DHT22;32787;53.316;8.670;2023-02-10T06:18:55;1.70;92.10
46816;DHT22;32787;53.316;8.670;2023-02-10T06:21:21;1.70;92.20
46816;DHT22;32787;53.316;8.670;2023-02-10T06:23:48;1.70;92.00
46816;DHT22;32787;53.316;8.670;2023-02-10T06:26:14;1.60;92.10
46816;DHT22;32787;53.316;8.670;2023-02-10T06:28:40;1.60;92.10
46816;DHT22;32787;53.316;8.670;2023-02-10T06:31:06;1.60;92.00
46816;DHT22;32787;53.316;8.670;2023-02-10T06:33:33;1.60;92.20
46816;DHT22;32787;53.316;8.670;2023-02-10T06:36:01;1.60;92.10
46816;DHT22;32787;53.316;8.670;2023-02-10T06:38:31;1.50;92.10
46816;DHT22;32787;53.316;8.670;2023-02-10T06:40:56;1.60;92.20
46816;DHT22;32787;53.316;8.670;2023-02-10T06:43:22;1.50;92.20
46816;DHT22;32787;53.316;8.670;2023-02-10T06:45:47;1.60;92.30
46816;DHT22;32787;53.316;8.670;2023-02-10T06:48:13;1.60;92.30
46816;DHT22;32787;53.316;8.670;2023-02-10T06:50:39;1.60;92.20
46816;DHT22;32787;53.316;8.670;2023-02-10T06:53:04;1.60;92.20
46816;DHT22;32787;53.316;8.670;2023-02-10T06:55:30;1.60;92.30
46816;DHT22;32787;53.316;8.670;2023-02-10T06:58:01;1.70;92.20
46816;DHT22;32787;53.316;8.670;2023-02-10T07:00:28;1.50;92.00
46816;DHT22;32787;53.316;8.670;2023-02-10T07:02:54;1.50;92.10
46816;DHT22;32787;53.316;8.670;2023-02-10T07:05:19;1.60;92.30
46816;DHT22;32787;53.316;8.670;2023-02-10T07:07:45;1.60;92.20
46816;DHT22;32787;53.316;8.670;2023-02-10T07:10:11;1.60;92.10
46816;DHT22;32787;53.316;8.670;2023-02-10T07:12:37;1.60;92.10
46816;DHT22;32787;53.316;8.670;2023-02-10T07:15:04;1.60;92.10
46816;DHT22;32787;53.316;8.670;2023-02-10T07:17:30;1.60;92.10
46816;DHT22;32787;53.316;8.670;2023-02-10T07:19:55;1.60;92.10
46816;DHT22;32787;53.316;8.670;2023-02-10T07:22:21;1.60;92.20
46816;DHT22;32787;53.316;8.670;2023-02-10T07:24:47;1.60;92.10
46816;DHT22;32787;53.316;8.670;2023-02-10T07:27:13;1.70;92.10
46816;DHT22;32787;53.316;8.670;2023-02-10T07:29:38;1.70;92.10
46816;DHT22;32787;53.316;8.670;2023-02-10T07:32:04;1.70;92.10
46816;DHT22;32787;53.316;8.670;2023-02-10T07:34:30;1.80;92.20
46816;DHT22;32787;53.316;8.670;2023-02-10T07:36:59;1.80;92.20
46816;DHT22;32787;53.316;8.670;2023-02-10T07:39:25;1.70;92.20
46816;DHT22;32787;53.316;8.670;2023-02-10T07:41:51;1.80;92.20
46816;DHT22;32787;53.316;8.670;2023-02-10T07:44:16;1.80;92.20
46816;DHT22;32787;53.316;8.670;2023-02-10T07:46:43;1.80;92.00
46816;DHT22;32787;53.316;8.670;2023-02-10T07:49:08;1.80;92.10
46816;DHT22;32787;53.316;8.670;2023-02-10T07:51:34;1.90;92.00
46816;DHT22;32787;53.316;8.670;2023-02-10T07:54:00;1.90;92.00
46816;DHT22;32787;53.316;8.670;2023-02-10T07:56:25;1.90;92.00
46816;DHT22;32787;53.316;8.670;2023-02-10T07:58:51;1.90;92.10
46816;DHT22;32787;53.316;8.670;2023-02-10T08:01:17;1.90;91.80
46816;DHT22;32787;53.316;8.670;2023-02-10T08:03:42;1.90;92.00
46816;DHT22;32787;53.316;8.670;2023-02-10T08:06:08;2.00;92.10
46816;DHT22;32787;53.316;8.670;2023-02-10T08:08:34;2.00;92.00
46816;DHT22;32787;53.316;8.670;2023-02-10T08:11:02;2.10;92.00
46816;DHT22;32787;53.316;8.670;2023-02-10T08:13:28;2.10;91.70
46816;DHT22;32787;53.316;8.670;2023-02-10T08:15:55;2.10;91.70
46816;DHT22;32787;53.316;8.670;2023-02-10T08:18:21;2.10;91.80
46816;DHT22;32787;53.316;8.670;2023-02-10T08:20:46;2.20;91.80
46816;DHT22;32787;53.316;8.670;2023-02-10T08:23:15;2.30;91.80
46816;DHT22;32787;53.316;8.670;2023-02-10T08:25:41;2.40;91.80
46816;DHT22;32787;53.316;8.670;2023-02-10T08:28:06;2.40;91.60
46816;DHT22;32787;53.316;8.670;2023-02-10T08:30:32;2.50;91.70
46816;DHT22;32787;53.316;8.670;2023-02-10T08:32:57;2.60;91.60
46816;DHT22;32787;53.316;8.670;2023-02-10T08:35:24;2.60;91.30
46816;DHT22;32787;53.316;8.670;2023-02-10T08:37:50;2.70;91.30
46816;DHT22;32787;53.316;8.670;2023-02-10T08:40:16;2.70;91.30
46816;DHT22;32787;53.316;8.670;2023-02-10T08:42:42;2.80;91.10
46816;DHT22;32787;53.316;8.670;2023-02-10T08:45:08;2.80;91.00
46816;DHT22;32787;53.316;8.670;2023-02-10T08:47:34;2.80;91.10
46816;DHT22;32787;53.316;8.670;2023-02-10T08:50:00;2.90;91.00
46816;DHT22;32787;53.316;8.670;2023-02-10T08:52:26;2.90;90.90
46816;DHT22;32787;53.316;8.670;2023-02-10T08:54:52;3.00;90.80
46816;DHT22;32787;53.316;8.670;2023-02-10T08:57:18;3.00;90.70
46816;DHT22;32787;53.316;8.670;2023-02-10T08:59:44;3.10;90.70
46816;DHT22;32787;53.316;8.670;2023-02-10T09:02:11;3.10;90.60
46816;DHT22;32787;53.316;8.670;2023-02-10T09:04:37;3.10;90.70
46816;DHT22;32787;53.316;8.670;2023-02-10T09:07:03;3.10;90.60
46816;DHT22;32787;53.316;8.670;2023-02-10T09:09:29;3.20;90.50
46816;DHT22;32787;53.316;8.670;2023-02-10T09:11:54;3.10;90.50
46816;DHT22;32787;53.316;8.670;2023-02-10T09:14:21;3.30;90.60
46816;DHT22;32787;53.316;8.670;2023-02-10T09:16:47;3.30;90.40
46816;DHT22;32787;53.316;8.670;2023-02-10T09:19:13;3.40;90.40
46816;DHT22;32787;53.316;8.670;2023-02-10T09:21:38;3.40;90.20
46816;DHT22;32787;53.316;8.670;2023-02-10T09:24:04;3.40;90.00
46816;DHT22;32787;53.316;8.670;2023-02-10T09:26:30;3.50;90.20
46816;DHT22;32787;53.316;8.670;2023-02-10T09:28:56;3.60;90.00
46816;DHT22;32787;53.316;8.670;2023-02-10T09:31:23;3.60;89.90
46816;DHT22;32787;53.316;8.670;2023-02-10T09:33:48;3.70;89.80
46816;DHT22;32787;53.316;8.670;2023-02-10T09:36:17;3.70;89.70
46816;DHT22;32787;53.316;8.670;2023-02-10T09:38:43;3.70;89.60
46816;DHT22;32787;53.316;8.670;2023-02-10T09:54:30;4.10;89.00
46816;DHT22;32787;53.316;8.670;2023-02-10T09:57:11;4.30;89.00
46816;DHT22;32787;53.316;8.670;2023-02-10T09:59:39;4.40;88.90
46816;DHT22;32787;53.316;8.670;2023-02-10T10:02:33;4.40;88.70
46816;DHT22;32787;53.316;8.670;2023-02-10T10:05:01;4.50;88.60
46816;DHT22;32787;53.316;8.670;2023-02-10T10:07:35;4.70;88.40
46816;DHT22;32787;53.316;8.670;2023-02-10T10:10:19;5.00;87.90
46816;DHT22;32787;53.316;8.670;2023-02-10T10:12:46;5.00;87.70
46816;DHT22;32787;53.316;8.670;2023-02-10T10:15:18;4.90;87.80
46816;DHT22;32787;53.316;8.670;2023-02-10T10:26:38;5.20;87.60
46816;DHT22;32787;53.316;8.670;2023-02-10T10:29:10;5.20;87.50
46816;DHT22;32787;53.316;8.670;2023-02-10T10:31:42;5.30;87.50
46816;DHT22;32787;53.316;8.670;2023-02-10T10:34:15;5.30;87.40
46816;DHT22;32787;53.316;8.670;2023-02-10T10:36:49;5.20;87.50
46816;DHT22;32787;53.316;8.670;2023-02-10T10:39:21;5.30;87.60
46816;DHT22;32787;53.316;8.670;2023-02-10T10:41:49;5.40;87.50
46816;DHT22;32787;53.316;8.670;2023-02-10T10:44:18;5.40;87.50
46816;DHT22;32787;53.316;8.670;2023-02-10T10:46:49;5.60;87.40
46816;DHT22;32787;53.316;8.670;2023-02-10T10:49:17;5.60;87.20
46816;DHT22;32787;53.316;8.670;2023-02-10T10:51:44;5.70;87.30
46816;DHT22;32787;53.316;8.670;2023-02-10T10:54:17;5.80;87.00
46816;DHT22;32787;53.316;8.670;2023-02-10T10:56:53;5.90;87.00
46816;DHT22;32787;53.316;8.670;2023-02-10T10:59:29;6.00;86.90
46816;DHT22;32787;53.316;8.670;2023-02-10T11:01:56;6.00;86.40
46816;DHT22;32787;53.316;8.670;2023-02-10T11:04:24;6.10;86.30
46816;DHT22;32787;53.316;8.670;2023-02-10T11:06:52;6.10;86.10
46816;DHT22;32787;53.316;8.670;2023-02-10T11:12:00;6.00;86.00
46816;DHT22;32787;53.316;8.670;2023-02-10T11:14:28;6.00;85.70
46816;DHT22;32787;53.316;8.670;2023-02-10T11:17:01;5.90;86.20
46816;DHT22;32787;53.316;8.670;2023-02-10T11:19:29;6.00;86.00
46816;DHT22;32787;53.316;8.670;2023-02-10T11:21:56;6.00;85.70
46816;DHT22;32787;53.316;8.670;2023-02-10T11:24:30;6.00;85.70
46816;DHT22;32787;53.316;8.670;2023-02-10T11:27:13;6.10;85.70
46816;DHT22;32787;53.316;8.670;2023-02-10T11:29:47;6.10;85.50
46816;DHT22;32787;53.316;8.670;2023-02-10T11:34:51;6.00;85.60
46816;DHT22;32787;53.316;8.670;2023-02-10T11:39:49;5.90;85.70
46816;DHT22;32787;53.316;8.670;2023-02-10T11:42:17;5.90;85.80
46816;DHT22;32787;53.316;8.670;2023-02-10T11:44:52;5.80;86.00
46816;DHT22;32787;53.316;8.670;2023-02-10T11:47:18;5.90;86.10
46816;DHT22;32787;53.316;8.670;2023-02-10T11:49:46;5.90;86.00
46816;DHT22;32787;53.316;8.670;2023-02-10T11:52:12;6.00;86.20
46816;DHT22;32787;53.316;8.670;2023-02-10T11:54:39;6.10;85.80
46816;DHT22;32787;53.316;8.670;2023-02-10T12:03:35;6.20;84.80
46816;DHT22;32787;53.316;8.670;2023-02-10T12:13:53;6.50;84.50
46816;DHT22;32787;53.316;8.670;2023-02-10T12:19:07;6.50;83.80
46816;DHT22;32787;53.316;8.670;2023-02-10T12:24:22;6.60;83.90
46816;DHT22;32787;53.316;8.670;2023-02-10T12:35:28;6.70;83.20
46816;DHT22;32787;53.316;8.670;2023-02-10T12:43:28;6.70;83.00
46816;DHT22;32787;53.316;8.670;2023-02-10T12:46:22;6.80;83.10
46816;DHT22;32787;53.316;8.670;2023-02-10T12:51:51;6.80;82.90
46816;DHT22;32787;53.316;8.670;2023-02-10T12:54:50;6.90;82.70
46816;DHT22;32787;53.316;8.670;2023-02-10T12:57:24;6.90;81.90
46816;DHT22;32787;53.316;8.670;2023-02-10T13:00:02;6.90;82.00
46816;DHT22;32787;53.316;8.670;2023-02-10T13:02:54;6.80;81.60
46816;DHT22;32787;53.316;8.670;2023-02-10T13:05:36;6.90;81.60
46816;DHT22;32787;53.316;8.670;2023-02-10T13:08:08;6.80;81.60
46816;DHT22;32787;53.316;8.670;2023-02-10T13:10:45;6.80;81.60
46816;DHT22;32787;53.316;8.670;2023-02-10T13:13:18;6.90;81.40
46816;DHT22;32787;53.316;8.670;2023-02-10T13:18:31;7.00;81.10
46816;DHT22;32787;53.316;8.670;2023-02-10T13:29:32;7.20;79.90
46816;DHT22;32787;53.316;8.670;2023-02-10T13:32:08;7.20;80.00
46816;DHT22;32787;53.316;8.670;2023-02-10T13:34:42;7.30;79.90
46816;DHT22;32787;53.316;8.670;2023-02-10T13:37:16;7.50;79.60
46816;DHT22;32787;53.316;8.670;2023-02-10T13:39:56;7.40;79.20
46816;DHT22;32787;53.316;8.670;2023-02-10T13:42:29;7.50;78.90
46816;DHT22;32787;53.316;8.670;2023-02-10T13:45:13;7.30;79.20
46816;DHT22;32787;53.316;8.670;2023-02-10T13:53:05;7.30;79.30
46816;DHT22;32787;53.316;8.670;2023-02-10T13:58:24;7.30;79.30
46816;DHT22;32787;53.316;8.670;2023-02-10T14:00:52;7.20;79.30
46816;DHT22;32787;53.316;8.670;2023-02-10T14:03:30;7.30;79.20
46816;DHT22;32787;53.316;8.670;2023-02-10T14:06:05;7.40;79.10
46816;DHT22;32787;53.316;8.670;2023-02-10T14:08:41;7.40;79.10
46816;DHT22;32787;53.316;8.670;2023-02-10T14:13:40;7.70;78.50
46816;DHT22;32787;53.316;8.670;2023-02-10T14:19:04;7.80;77.40
46816;DHT22;32787;53.316;8.670;2023-02-10T14:21:39;7.60;77.70
46816;DHT22;32787;53.316;8.670;2023-02-10T14:24:09;7.60;77.80
46816;DHT22;32787;53.316;8.670;2023-02-10T14:26:42;7.60;77.80
46816;DHT22;32787;53.316;8.670;2023-02-10T14:29:18;7.50;78.10
46816;DHT22;32787;53.316;8.670;2023-02-10T14:31:48;7.50;78.40
46816;DHT22;32787;53.316;8.670;2023-02-10T14:34:24;7.50;78.50
46816;DHT22;32787;53.316;8.670;2023-02-10T14:39:23;7.50;78.20
46816;DHT22;32787;53.316;8.670;2023-02-10T14:41:50;7.40;77.80
46816;DHT22;32787;53.316;8.670;2023-02-10T14:44:41;7.30;78.30
46816;DHT22;32787;53.316;8.670;2023-02-10T14:47:20;7.40;77.90
46816;DHT22;32787;53.316;8.670;2023-02-10T14:49:52;7.30;78.20
46816;DHT22;32787;53.316;8.670;2023-02-10T14:52:28;7.30;78.00
46816;DHT22;32787;53.316;8.670;2023-02-10T14:54:54;7.40;78.10
46816;DHT22;32787;53.316;8.670;2023-02-10T14:57:22;7.30;78.00
46816;DHT22;32787;53.316;8.670;2023-02-10T14:59:54;7.30;78.40
46816;DHT22;32787;53.316;8.670;2023-02-10T15:02:23;7.30;78.00
46816;DHT22;32787;53.316;8.670;2023-02-10T15:04:50;7.30;78.50
46816;DHT22;32787;53.316;8.670;2023-02-10T15:07:25;7.30;78.40
46816;DHT22;32787;53.316;8.670;2023-02-10T15:09:53;7.40;78.40
46816;DHT22;32787;53.316;8.670;2023-02-10T15:12:21;7.30;78.50
46816;DHT22;32787;53.316;8.670;2023-02-10T15:17:34;7.30;78.80
46816;DHT22;32787;53.316;8.670;2023-02-10T15:20:22;7.30;78.50
46816;DHT22;32787;53.316;8.670;2023-02-10T15:23:01;7.20;78.40
46816;DHT22;32787;53.316;8.670;2023-02-10T15:33:39;7.20;79.00
46816;DHT22;32787;53.316;8.670;2023-02-10T15:36:29;7.10;79.20
46816;DHT22;32787;53.316;8.670;2023-02-10T15:41:41;6.90;79.90
46816;DHT22;32787;53.316;8.670;2023-02-10T15:46:47;6.70;80.40
46816;DHT22;32787;53.316;8.670;2023-02-10T15:49:16;6.60;80.70
46816;DHT22;32787;53.316;8.670;2023-02-10T15:51:54;6.50;81.00
46816;DHT22;32787;53.316;8.670;2023-02-10T15:54:22;6.40;81.20
46816;DHT22;32787;53.316;8.670;2023-02-10T15:57:03;6.40;81.20
46816;DHT22;32787;53.316;8.670;2023-02-10T15:59:30;6.30;81.50
46816;DHT22;32787;53.316;8.670;2023-02-10T16:02:02;6.40;81.70
46816;DHT22;32787;53.316;8.670;2023-02-10T16:04:29;6.40;81.40
46816;DHT22;32787;53.316;8.670;2023-02-10T16:06:55;6.40;81.80
46816;DHT22;32787;53.316;8.670;2023-02-10T16:09:21;6.40;81.70
46816;DHT22;32787;53.316;8.670;2023-02-10T16:11:47;6.40;81.50
46816;DHT22;32787;53.316;8.670;2023-02-10T16:14:13;6.40;81.40
46816;DHT22;32787;53.316;8.670;2023-02-10T16:16:42;6.50;81.40
46816;DHT22;32787;53.316;8.670;2023-02-10T16:19:13;6.40;81.50
46816;DHT22;32787;53.316;8.670;2023-02-10T16:21:39;6.40;81.60
46816;DHT22;32787;53.316;8.670;2023-02-10T16:24:05;6.20;81.80
46816;DHT22;32787;53.316;8.670;2023-02-10T16:26:32;6.20;81.80
46816;DHT22;32787;53.316;8.670;2023-02-10T16:28:58;6.00;82.10
46816;DHT22;32787;53.316;8.670;2023-02-10T16:31:23;6.00;82.10
46816;DHT22;32787;53.316;8.670;2023-02-10T16:33:49;5.90;82.30
46816;DHT22;32787;53.316;8.670;2023-02-10T16:36:16;5.90;82.50
46816;DHT22;32787;53.316;8.670;2023-02-10T16:38:43;5.80;82.60
46816;DHT22;32787;53.316;8.670;2023-02-10T16:41:09;5.70;82.70
46816;DHT22;32787;53.316;8.670;2023-02-10T16:43:35;5.70;83.00
46816;DHT22;32787;53.316;8.670;2023-02-10T16:46:01;5.60;82.90
46816;DHT22;32787;53.316;8.670;2023-02-10T16:48:27;5.40;83.40
46816;DHT22;32787;53.316;8.670;2023-02-10T16:50:53;5.40;83.70
46816;DHT22;32787;53.316;8.670;2023-02-10T16:53:19;5.50;83.50
46816;DHT22;32787;53.316;8.670;2023-02-10T16:55:44;5.40;83.40
46816;DHT22;32787;53.316;8.670;2023-02-10T16:58:13;5.30;83.80
46816;DHT22;32787;53.316;8.670;2023-02-10T17:00:40;5.30;83.90
46816;DHT22;32787;53.316;8.670;2023-02-10T17:03:05;5.20;84.00
46816;DHT22;32787;53.316;8.670;2023-02-10T17:05:31;5.10;84.20
46816;DHT22;32787;53.316;8.670;2023-02-10T17:07:58;5.10;84.40
46816;DHT22;32787;53.316;8.670;2023-02-10T17:10:26;5.10;84.40
46816;DHT22;32787;53.316;8.670;2023-02-10T17:12:52;5.10;84.30
46816;DHT22;32787;53.316;8.670;2023-02-10T17:15:19;5.20;84.20
46816;DHT22;32787;53.316;8.670;2023-02-10T17:17:45;5.30;84.30
46816;DHT22;32787;53.316;8.670;2023-02-10T17:20:29;5.30;84.00
46816;DHT22;32787;53.316;8.670;2023-02-10T17:22:55;5.30;84.10
46816;DHT22;32787;53.316;8.670;2023-02-10T17:25:23;5.30;84.20
46816;DHT22;32787;53.316;8.670;2023-02-10T17:27:51;5.30;84.10
46816;DHT22;32787;53.316;8.670;2023-02-10T17:30:19;5.20;84.00
46816;DHT22;32787;53.316;8.670;2023-02-10T17:32:47;5.20;84.20
46816;DHT22;32787;53.316;8.670;2023-02-10T17:35:16;5.10;84.20
46816;DHT22;32787;53.316;8.670;2023-02-10T17:37:42;5.20;84.20
46816;DHT22;32787;53.316;8.670;2023-02-10T17:40:09;5.30;84.10
46816;DHT22;32787;53.316;8.670;2023-02-10T17:42:47;5.30;83.90
46816;DHT22;32787;53.316;8.670;2023-02-10T17:45:13;5.30;83.90
46816;DHT22;32787;53.316;8.670;2023-02-10T17:47:39;5.20;83.90
46816;DHT22;32787;53.316;8.670;2023-02-10T17:50:05;5.10;83.90
46816;DHT22;32787;53.316;8.670;2023-02-10T17:52:31;5.10;83.90
46816;DHT22;32787;53.316;8.670;2023-02-10T17:54:56;5.10;84.00
46816;DHT22;32787;53.316;8.670;2023-02-10T17:57:23;5.00;84.20
46816;DHT22;32787;53.316;8.670;2023-02-10T17:59:48;5.00;84.10
46816;DHT22;32787;53.316;8.670;2023-02-10T18:02:14;4.90;84.50
46816;DHT22;32787;53.316;8.670;2023-02-10T18:04:40;4.80;84.60
46816;DHT22;32787;53.316;8.670;2023-02-10T18:07:09;4.80;84.70
46816;DHT22;32787;53.316;8.670;2023-02-10T18:09:34;4.80;84.60
46816;DHT22;32787;53.316;8.670;2023-02-10T18:12:00;4.80;84.70
46816;DHT22;32787;53.316;8.670;2023-02-10T18:14:31;4.80;84.70